sensor_id;sensor_type;location;lat;lon;timestamp;pressure;altitude;pressure_sealevel;temperature;humidity
53908;BME280;40469;47.998;7.794;2022-07-29T00:01:15;98701.63;;;19.71;83.83
53908;BME280;40469;47.998;7.794;2022-07-29T00:03:40;98693.56;;;19.74;84.05
53908;BME280;40469;47.998;7.794;2022-07-29T00:06:06;98693.56;;;19.74;83.88
53908;BME280;40469;47.998;7.794;2022-07-29T00:08:31;98690.97;;;19.73;83.14
53908;BME280;40469;47.998;7.794;2022-07-29T00:10:57;98695.22;;;19.77;82.81
53908;BME280;40469;47.998;7.794;2022-07-29T00:13:22;98684.50;;;19.78;82.75
53908;BME280;40469;47.998;7.794;2022-07-29T00:15:47;98687.97;;;19.80;82.17
53908;BME280;40469;47.998;7.794;2022-07-29T00:18:13;98684.44;;;19.80;81.85
53908;BME280;40469;47.998;7.794;2022-07-29T00:20:38;98692.47;;;19.78;81.94
53908;BME280;40469;47.998;7.794;2022-07-29T00:23:03;98694.56;;;19.72;82.11
53908;BME280;40469;47.998;7.794;2022-07-29T00:25:29;98690.91;;;19.74;81.86
53908;BME280;40469;47.998;7.794;2022-07-29T00:27:54;98690.19;;;19.70;82.43
53908;BME280;40469;47.998;7.794;2022-07-29T00:30:19;98686.47;;;19.75;81.91
53908;BME280;40469;47.998;7.794;2022-07-29T00:32:45;98682.97;;;19.74;81.28
53908;BME280;40469;47.998;7.794;2022-07-29T00:35:10;98673.38;;;19.72;81.69
53908;BME280;40469;47.998;7.794;2022-07-29T00:37:54;98679.94;;;19.64;81.87
53908;BME280;40469;47.998;7.794;2022-07-29T00:40:19;98674.09;;;19.58;82.13
53908;BME280;40469;47.998;7.794;2022-07-29T00:42:50;98675.25;;;19.69;81.75
53908;BME280;40469;47.998;7.794;2022-07-29T00:45:16;98679.47;;;19.74;80.96
53908;BME280;40469;47.998;7.794;2022-07-29T00:47:43;98669.78;;;19.73;80.60
53908;BME280;40469;47.998;7.794;2022-07-29T00:50:10;98677.28;;;19.64;81.32
53908;BME280;40469;47.998;7.794;2022-07-29T00:52:38;98680.63;;;19.68;80.48
53908;BME280;40469;47.998;7.794;2022-07-29T00:55:07;98678.13;;;19.65;80.18
53908;BME280;40469;47.998;7.794;2022-07-29T00:57:33;98675.31;;;19.68;80.14
53908;BME280;40469;47.998;7.794;2022-07-29T00:59:59;98673.13;;;19.59;80.39
53908;BME280;40469;47.998;7.794;2022-07-29T01:02:25;98678.75;;;19.52;80.42
53908;BME280;40469;47.998;7.794;2022-07-29T01:04:50;98668.72;;;19.42;80.92
53908;BME280;40469;47.998;7.794;2022-07-29T01:07:17;98672.69;;;19.50;80.75
53908;BME280;40469;47.998;7.794;2022-07-29T01:09:43;98672.34;;;19.57;80.42
53908;BME280;40469;47.998;7.794;2022-07-29T01:12:10;98674.78;;;19.61;79.68
53908;BME280;40469;47.998;7.794;2022-07-29T01:14:38;98675.41;;;19.66;79.54
53908;BME280;40469;47.998;7.794;2022-07-29T01:17:36;98674.44;;;19.67;78.93
53908;BME280;40469;47.998;7.794;2022-07-29T01:23:03;98663.63;;;19.55;79.31
53908;BME280;40469;47.998;7.794;2022-07-29T01:28:49;98663.72;;;19.36;79.98
53908;BME280;40469;47.998;7.794;2022-07-29T01:31:28;98662.66;;;19.40;79.62
53908;BME280;40469;47.998;7.794;2022-07-29T01:33:58;98668.94;;;19.37;79.72
53908;BME280;40469;47.998;7.794;2022-07-29T01:36:40;98661.47;;;19.28;80.06
53908;BME280;40469;47.998;7.794;2022-07-29T01:39:16;98663.47;;;19.23;80.42
53908;BME280;40469;47.998;7.794;2022-07-29T01:44:41;98666.28;;;19.20;80.14
53908;BME280;40469;47.998;7.794;2022-07-29T01:47:15;98658.34;;;19.20;80.00
53908;BME280;40469;47.998;7.794;2022-07-29T01:49:46;98665.56;;;19.16;79.83
53908;BME280;40469;47.998;7.794;2022-07-29T01:52:21;98670.72;;;19.19;80.02
53908;BME280;40469;47.998;7.794;2022-07-29T01:54:53;98661.84;;;19.20;79.80
53908;BME280;40469;47.998;7.794;2022-07-29T01:57:21;98664.25;;;19.25;79.04
53908;BME280;40469;47.998;7.794;2022-07-29T01:59:50;98667.03;;;19.22;78.86
53908;BME280;40469;47.998;7.794;2022-07-29T02:02:17;98664.25;;;19.25;79.14
53908;BME280;40469;47.998;7.794;2022-07-29T02:04:44;98669.31;;;19.29;78.44
53908;BME280;40469;47.998;7.794;2022-07-29T02:07:15;98673.66;;;19.30;78.06
53908;BME280;40469;47.998;7.794;2022-07-29T02:09:42;98674.56;;;19.31;77.67
53908;BME280;40469;47.998;7.794;2022-07-29T02:12:10;98672.75;;;19.31;77.57
53908;BME280;40469;47.998;7.794;2022-07-29T02:14:39;98675.94;;;19.38;77.08
53908;BME280;40469;47.998;7.794;2022-07-29T02:17:05;98678.69;;;19.37;77.52
53908;BME280;40469;47.998;7.794;2022-07-29T02:19:32;98675.31;;;19.33;76.76
53908;BME280;40469;47.998;7.794;2022-07-29T02:21:59;98678.59;;;19.38;76.92
53908;BME280;40469;47.998;7.794;2022-07-29T02:24:26;98680.84;;;19.28;77.25
53908;BME280;40469;47.998;7.794;2022-07-29T02:26:55;98679.28;;;19.24;77.29
53908;BME280;40469;47.998;7.794;2022-07-29T02:29:25;98679.16;;;19.27;77.20
53908;BME280;40469;47.998;7.794;2022-07-29T02:31:52;98681.16;;;19.22;76.92
53908;BME280;40469;47.998;7.794;2022-07-29T02:34:20;98673.78;;;19.29;76.74
53908;BME280;40469;47.998;7.794;2022-07-29T02:36:46;98675.25;;;19.35;76.29
53908;BME280;40469;47.998;7.794;2022-07-29T02:39:13;98675.25;;;19.35;75.87
53908;BME280;40469;47.998;7.794;2022-07-29T02:41:52;98680.28;;;19.22;76.59
53908;BME280;40469;47.998;7.794;2022-07-29T02:44:19;98682.53;;;19.12;76.77
53908;BME280;40469;47.998;7.794;2022-07-29T02:46:49;98684.47;;;19.08;77.13
53908;BME280;40469;47.998;7.794;2022-07-29T02:49:23;98678.81;;;19.16;76.93
53908;BME280;40469;47.998;7.794;2022-07-29T02:51:58;98682.69;;;19.09;77.46
53908;BME280;40469;47.998;7.794;2022-07-29T02:54:40;98684.16;;;18.97;77.78
53908;BME280;40469;47.998;7.794;2022-07-29T02:57:38;98680.34;;;19.03;78.01
53908;BME280;40469;47.998;7.794;2022-07-29T03:00:08;98679.19;;;19.08;78.14
53908;BME280;40469;47.998;7.794;2022-07-29T03:02:38;98680.19;;;19.06;78.30
53908;BME280;40469;47.998;7.794;2022-07-29T03:05:06;98676.72;;;18.86;78.57
53908;BME280;40469;47.998;7.794;2022-07-29T03:07:34;98682.56;;;18.93;78.72
53908;BME280;40469;47.998;7.794;2022-07-29T03:10:01;98676.22;;;18.78;79.32
53908;BME280;40469;47.998;7.794;2022-07-29T03:12:26;98673.41;;;18.81;79.18
53908;BME280;40469;47.998;7.794;2022-07-29T03:14:54;98673.72;;;18.75;79.44
53908;BME280;40469;47.998;7.794;2022-07-29T03:17:21;98662.00;;;18.62;79.78
53908;BME280;40469;47.998;7.794;2022-07-29T03:19:47;98672.75;;;18.59;80.00
53908;BME280;40469;47.998;7.794;2022-07-29T03:22:13;98670.03;;;18.60;80.13
53908;BME280;40469;47.998;7.794;2022-07-29T03:24:39;98675.38;;;18.59;80.20
53908;BME280;40469;47.998;7.794;2022-07-29T03:27:04;98674.50;;;18.58;80.01
53908;BME280;40469;47.998;7.794;2022-07-29T03:29:30;98671.00;;;18.57;79.82
53908;BME280;40469;47.998;7.794;2022-07-29T03:31:56;98675.31;;;18.60;79.94
53908;BME280;40469;47.998;7.794;2022-07-29T03:34:22;98673.53;;;18.61;79.30
53908;BME280;40469;47.998;7.794;2022-07-29T03:36:47;98681.72;;;18.54;79.78
53908;BME280;40469;47.998;7.794;2022-07-29T03:39:18;98676.09;;;18.62;79.61
53908;BME280;40469;47.998;7.794;2022-07-29T03:41:48;98679.53;;;18.64;79.32
53908;BME280;40469;47.998;7.794;2022-07-29T03:44:16;98679.66;;;18.61;79.70
53908;BME280;40469;47.998;7.794;2022-07-29T03:46:43;98677.72;;;18.65;79.38
53908;BME280;40469;47.998;7.794;2022-07-29T03:49:11;98683.31;;;18.59;79.62
53908;BME280;40469;47.998;7.794;2022-07-29T03:51:37;98684.31;;;18.56;79.92
53908;BME280;40469;47.998;7.794;2022-07-29T03:54:04;98685.59;;;18.47;80.40
53908;BME280;40469;47.998;7.794;2022-07-29T03:56:32;98684.88;;;18.44;80.23
53908;BME280;40469;47.998;7.794;2022-07-29T03:59:02;98684.59;;;18.50;79.79
53908;BME280;40469;47.998;7.794;2022-07-29T04:01:28;98679.44;;;18.47;79.67
53908;BME280;40469;47.998;7.794;2022-07-29T04:03:54;98683.00;;;18.46;79.81
53908;BME280;40469;47.998;7.794;2022-07-29T04:06:20;98690.59;;;18.53;79.59
53908;BME280;40469;47.998;7.794;2022-07-29T04:08:45;98688.41;;;18.44;79.79
53908;BME280;40469;47.998;7.794;2022-07-29T04:11:11;98688.47;;;18.43;80.34
53908;BME280;40469;47.998;7.794;2022-07-29T04:13:37;98684.81;;;18.45;80.04
53908;BME280;40469;47.998;7.794;2022-07-29T04:16:03;98684.09;;;18.42;79.68
53908;BME280;40469;47.998;7.794;2022-07-29T04:18:28;98684.94;;;18.42;79.56
53908;BME280;40469;47.998;7.794;2022-07-29T04:20:53;98698.97;;;18.44;80.32
53908;BME280;40469;47.998;7.794;2022-07-29T04:23:19;98697.03;;;18.48;79.46
53908;BME280;40469;47.998;7.794;2022-07-29T04:25:44;98692.59;;;18.48;79.90
53908;BME280;40469;47.998;7.794;2022-07-29T04:28:10;98696.31;;;18.44;79.80
53908;BME280;40469;47.998;7.794;2022-07-29T04:30:39;98703.38;;;18.44;79.16
53908;BME280;40469;47.998;7.794;2022-07-29T04:33:06;98700.72;;;18.44;79.26
53908;BME280;40469;47.998;7.794;2022-07-29T04:35:36;98702.47;;;18.45;78.71
53908;BME280;40469;47.998;7.794;2022-07-29T04:38:02;98707.75;;;18.45;78.44
53908;BME280;40469;47.998;7.794;2022-07-29T04:40:28;98702.31;;;18.48;77.76
53908;BME280;40469;47.998;7.794;2022-07-29T04:42:54;98703.03;;;18.51;77.93
53908;BME280;40469;47.998;7.794;2022-07-29T04:45:19;98711.19;;;18.66;77.76
53908;BME280;40469;47.998;7.794;2022-07-29T04:47:45;98713.13;;;18.62;78.08
53908;BME280;40469;47.998;7.794;2022-07-29T04:50:10;98717.69;;;18.59;78.17
53908;BME280;40469;47.998;7.794;2022-07-29T04:52:36;98714.88;;;18.62;77.39
53908;BME280;40469;47.998;7.794;2022-07-29T04:55:02;98711.13;;;18.67;77.84
53908;BME280;40469;47.998;7.794;2022-07-29T04:57:28;98710.41;;;18.64;77.81
53908;BME280;40469;47.998;7.794;2022-07-29T04:59:53;98714.59;;;18.68;78.17
53908;BME280;40469;47.998;7.794;2022-07-29T05:02:19;98718.03;;;18.70;78.07
53908;BME280;40469;47.998;7.794;2022-07-29T05:04:44;98716.88;;;18.75;78.32
53908;BME280;40469;47.998;7.794;2022-07-29T05:07:10;98725.59;;;18.77;77.67
53908;BME280;40469;47.998;7.794;2022-07-29T05:09:35;98728.91;;;18.83;77.53
53908;BME280;40469;47.998;7.794;2022-07-29T05:12:00;98722.63;;;18.85;77.20
53908;BME280;40469;47.998;7.794;2022-07-29T05:14:26;98718.91;;;18.89;77.32
53908;BME280;40469;47.998;7.794;2022-07-29T05:16:51;98728.41;;;18.93;76.32
53908;BME280;40469;47.998;7.794;2022-07-29T05:19:18;98730.13;;;18.94;75.45
53908;BME280;40469;47.998;7.794;2022-07-29T05:25:10;98736.38;;;19.11;75.97
53908;BME280;40469;47.998;7.794;2022-07-29T05:27:38;98746.97;;;19.11;75.16
53908;BME280;40469;47.998;7.794;2022-07-29T05:30:05;98753.66;;;19.01;74.19
53908;BME280;40469;47.998;7.794;2022-07-29T05:32:41;98749.16;;;19.03;74.64
53908;BME280;40469;47.998;7.794;2022-07-29T05:35:14;98751.63;;;19.06;74.58
53908;BME280;40469;47.998;7.794;2022-07-29T05:37:40;98750.31;;;19.14;74.52
53908;BME280;40469;47.998;7.794;2022-07-29T05:40:30;98753.53;;;19.21;74.31
53908;BME280;40469;47.998;7.794;2022-07-29T05:45:43;98758.47;;;19.29;74.50
53908;BME280;40469;47.998;7.794;2022-07-29T05:48:08;98762.53;;;19.36;75.10
53908;BME280;40469;47.998;7.794;2022-07-29T05:50:34;98761.53;;;19.39;74.17
53908;BME280;40469;47.998;7.794;2022-07-29T05:53:00;98766.44;;;19.46;75.00
53908;BME280;40469;47.998;7.794;2022-07-29T05:55:26;98765.38;;;19.50;74.62
53908;BME280;40469;47.998;7.794;2022-07-29T05:57:52;98767.44;;;19.44;74.05
53908;BME280;40469;47.998;7.794;2022-07-29T06:00:21;98765.03;;;19.57;73.22
53908;BME280;40469;47.998;7.794;2022-07-29T06:02:56;98777.13;;;19.62;73.41
53908;BME280;40469;47.998;7.794;2022-07-29T06:05:21;98770.59;;;19.52;74.26
53908;BME280;40469;47.998;7.794;2022-07-29T06:07:56;98777.28;;;19.59;73.35
53908;BME280;40469;47.998;7.794;2022-07-29T06:10:22;98775.81;;;19.71;73.33
53908;BME280;40469;47.998;7.794;2022-07-29T06:12:47;98780.69;;;19.80;74.35
53908;BME280;40469;47.998;7.794;2022-07-29T06:15:16;98785.09;;;19.80;74.18
53908;BME280;40469;47.998;7.794;2022-07-29T06:17:41;98783.88;;;19.87;73.60
53908;BME280;40469;47.998;7.794;2022-07-29T06:20:07;98784.63;;;20.06;73.20
53908;BME280;40469;47.998;7.794;2022-07-29T06:22:33;98784.63;;;20.06;73.26
53908;BME280;40469;47.998;7.794;2022-07-29T06:24:59;98778.53;;;20.22;72.29
53908;BME280;40469;47.998;7.794;2022-07-29T06:27:26;98786.00;;;20.31;72.40
53908;BME280;40469;47.998;7.794;2022-07-29T06:29:51;98788.88;;;20.44;72.13
53908;BME280;40469;47.998;7.794;2022-07-29T06:32:24;98789.16;;;20.55;70.73
53908;BME280;40469;47.998;7.794;2022-07-29T06:34:50;98792.31;;;20.63;70.02
53908;BME280;40469;47.998;7.794;2022-07-29T06:37:16;98792.03;;;20.68;69.89
53908;BME280;40469;47.998;7.794;2022-07-29T06:39:42;98790.88;;;20.74;67.30
53908;BME280;40469;47.998;7.794;2022-07-29T06:42:08;98789.16;;;20.73;67.33
53908;BME280;40469;47.998;7.794;2022-07-29T06:44:34;98783.00;;;20.72;66.89
53908;BME280;40469;47.998;7.794;2022-07-29T06:47:03;98787.59;;;20.69;67.20
53908;BME280;40469;47.998;7.794;2022-07-29T06:49:29;98800.81;;;20.86;67.14
53908;BME280;40469;47.998;7.794;2022-07-29T06:51:57;98794.72;;;20.84;67.15
53908;BME280;40469;47.998;7.794;2022-07-29T06:54:28;98795.75;;;20.97;65.16
53908;BME280;40469;47.998;7.794;2022-07-29T06:56:54;98797.81;;;21.08;64.44
53908;BME280;40469;47.998;7.794;2022-07-29T06:59:25;98796.81;;;21.11;63.39
53908;BME280;40469;47.998;7.794;2022-07-29T07:01:51;98805.72;;;21.10;63.95
53908;BME280;40469;47.998;7.794;2022-07-29T07:04:16;98806.06;;;21.04;64.10
53908;BME280;40469;47.998;7.794;2022-07-29T07:06:42;98801.59;;;21.04;65.00
53908;BME280;40469;47.998;7.794;2022-07-29T07:09:08;98805.25;;;21.17;63.92
53908;BME280;40469;47.998;7.794;2022-07-29T07:11:33;98819.06;;;21.24;63.61
53908;BME280;40469;47.998;7.794;2022-07-29T07:13:59;98824.72;;;21.34;63.55
53908;BME280;40469;47.998;7.794;2022-07-29T07:16:25;98820.53;;;21.46;62.99
53908;BME280;40469;47.998;7.794;2022-07-29T07:18:50;98816.78;;;21.50;63.44
53908;BME280;40469;47.998;7.794;2022-07-29T07:21:19;98819.59;;;21.63;63.48
53908;BME280;40469;47.998;7.794;2022-07-29T07:23:48;98817.81;;;21.77;63.55
53908;BME280;40469;47.998;7.794;2022-07-29T07:26:17;98822.47;;;21.74;63.63
53908;BME280;40469;47.998;7.794;2022-07-29T07:28:43;98828.13;;;21.84;63.57
53908;BME280;40469;47.998;7.794;2022-07-29T07:31:08;98833.19;;;21.88;63.35
53908;BME280;40469;47.998;7.794;2022-07-29T07:33:34;98834.41;;;21.97;63.69
53908;BME280;40469;47.998;7.794;2022-07-29T07:36:00;98842.63;;;22.08;63.54
53908;BME280;40469;47.998;7.794;2022-07-29T07:38:28;98844.31;;;22.09;63.41
53908;BME280;40469;47.998;7.794;2022-07-29T07:40:57;98848.50;;;21.99;64.25
53908;BME280;40469;47.998;7.794;2022-07-29T07:43:32;98847.34;;;22.03;64.41
53908;BME280;40469;47.998;7.794;2022-07-29T07:45:58;98856.59;;;22.12;64.11
53908;BME280;40469;47.998;7.794;2022-07-29T07:48:23;98860.59;;;22.19;64.47
53908;BME280;40469;47.998;7.794;2022-07-29T07:50:51;98855.97;;;21.92;65.03
53908;BME280;40469;47.998;7.794;2022-07-29T07:53:17;98845.97;;;22.12;65.04
53908;BME280;40469;47.998;7.794;2022-07-29T07:55:45;98853.13;;;22.26;64.93
53908;BME280;40469;47.998;7.794;2022-07-29T07:58:10;98850.47;;;22.26;63.71
53908;BME280;40469;47.998;7.794;2022-07-29T08:00:37;98849.13;;;22.19;64.81
53908;BME280;40469;47.998;7.794;2022-07-29T08:03:03;98847.81;;;22.26;64.32
53908;BME280;40469;47.998;7.794;2022-07-29T08:05:28;98841.56;;;22.41;63.83
53908;BME280;40469;47.998;7.794;2022-07-29T08:07:57;98844.63;;;22.35;63.90
53908;BME280;40469;47.998;7.794;2022-07-29T08:10:26;98844.06;;;22.44;62.51
53908;BME280;40469;47.998;7.794;2022-07-29T08:13:13;98839.06;;;22.24;62.53
53908;BME280;40469;47.998;7.794;2022-07-29T08:15:39;98836.94;;;22.45;62.03
53908;BME280;40469;47.998;7.794;2022-07-29T08:18:06;98828.31;;;22.56;61.52
53908;BME280;40469;47.998;7.794;2022-07-29T08:20:35;98833.06;;;22.65;60.89
53908;BME280;40469;47.998;7.794;2022-07-29T08:23:10;98841.31;;;22.75;61.10
53908;BME280;40469;47.998;7.794;2022-07-29T08:25:36;98833.16;;;22.78;60.44
53908;BME280;40469;47.998;7.794;2022-07-29T08:28:03;98835.34;;;22.85;59.34
53908;BME280;40469;47.998;7.794;2022-07-29T08:30:29;98838.66;;;23.03;57.80
53908;BME280;40469;47.998;7.794;2022-07-29T08:32:54;98835.25;;;23.01;58.29
53908;BME280;40469;47.998;7.794;2022-07-29T08:35:21;98840.16;;;23.22;56.36
53908;BME280;40469;47.998;7.794;2022-07-29T08:37:48;98830.97;;;23.13;56.56
53908;BME280;40469;47.998;7.794;2022-07-29T08:40:13;98831.09;;;23.39;55.66
53908;BME280;40469;47.998;7.794;2022-07-29T08:42:41;98831.19;;;23.64;52.54
53908;BME280;40469;47.998;7.794;2022-07-29T08:45:08;98836.19;;;23.56;51.90
53908;BME280;40469;47.998;7.794;2022-07-29T08:47:34;98830.31;;;23.51;50.96
53908;BME280;40469;47.998;7.794;2022-07-29T08:50:08;98836.53;;;23.64;51.45
53908;BME280;40469;47.998;7.794;2022-07-29T08:52:39;98828.47;;;23.79;51.18
53908;BME280;40469;47.998;7.794;2022-07-29T08:55:08;98826.44;;;23.97;50.47
53908;BME280;40469;47.998;7.794;2022-07-29T08:57:34;98833.47;;;23.98;50.28
53908;BME280;40469;47.998;7.794;2022-07-29T09:03:01;98836.97;;;23.85;50.19
53908;BME280;40469;47.998;7.794;2022-07-29T09:05:32;98834.34;;;23.98;50.52
53908;BME280;40469;47.998;7.794;2022-07-29T09:08:01;98836.19;;;24.11;51.12
53908;BME280;40469;47.998;7.794;2022-07-29T09:10:27;98827.75;;;24.17;50.50
53908;BME280;40469;47.998;7.794;2022-07-29T09:12:55;98829.44;;;24.05;50.47
53908;BME280;40469;47.998;7.794;2022-07-29T09:15:21;98833.38;;;24.12;50.60
53908;BME280;40469;47.998;7.794;2022-07-29T09:17:48;98831.13;;;23.93;50.96
53908;BME280;40469;47.998;7.794;2022-07-29T09:20:21;98828.88;;;24.00;51.75
53908;BME280;40469;47.998;7.794;2022-07-29T09:22:48;98830.41;;;24.04;51.53
53908;BME280;40469;47.998;7.794;2022-07-29T09:25:38;98831.31;;;23.90;50.18
53908;BME280;40469;47.998;7.794;2022-07-29T09:28:17;98827.03;;;23.88;50.26
53908;BME280;40469;47.998;7.794;2022-07-29T09:30:54;98834.22;;;23.73;50.19
53908;BME280;40469;47.998;7.794;2022-07-29T09:33:22;98846.06;;;23.69;50.73
53908;BME280;40469;47.998;7.794;2022-07-29T09:36:03;98847.25;;;23.77;50.24
53908;BME280;40469;47.998;7.794;2022-07-29T09:38:29;98842.69;;;23.79;50.08
53908;BME280;40469;47.998;7.794;2022-07-29T09:40:59;98854.81;;;23.71;49.98
53908;BME280;40469;47.998;7.794;2022-07-29T09:43:24;98851.28;;;23.70;50.65
53908;BME280;40469;47.998;7.794;2022-07-29T09:45:50;98851.25;;;23.84;50.34
53908;BME280;40469;47.998;7.794;2022-07-29T09:48:21;98856.63;;;23.97;50.04
53908;BME280;40469;47.998;7.794;2022-07-29T09:50:47;98844.84;;;24.14;49.53
53908;BME280;40469;47.998;7.794;2022-07-29T09:55:58;98852.28;;;24.09;50.14
53908;BME280;40469;47.998;7.794;2022-07-29T09:58:24;98850.78;;;24.05;51.20
53908;BME280;40469;47.998;7.794;2022-07-29T10:00:51;98837.47;;;24.18;49.75
53908;BME280;40469;47.998;7.794;2022-07-29T10:03:17;98833.94;;;24.17;50.27
53908;BME280;40469;47.998;7.794;2022-07-29T10:05:44;98837.59;;;23.89;50.26
53908;BME280;40469;47.998;7.794;2022-07-29T10:08:11;98838.41;;;24.04;49.89
53908;BME280;40469;47.998;7.794;2022-07-29T10:10:41;98832.63;;;24.10;50.25
53908;BME280;40469;47.998;7.794;2022-07-29T10:13:11;98841.28;;;24.01;49.60
53908;BME280;40469;47.998;7.794;2022-07-29T10:15:41;98840.09;;;24.05;49.80
53908;BME280;40469;47.998;7.794;2022-07-29T10:18:09;98833.06;;;24.04;49.61
53908;BME280;40469;47.998;7.794;2022-07-29T10:20:36;98825.81;;;24.19;49.30
53908;BME280;40469;47.998;7.794;2022-07-29T10:23:02;98829.03;;;24.24;49.95
53908;BME280;40469;47.998;7.794;2022-07-29T10:25:27;98826.72;;;24.45;50.55
53908;BME280;40469;47.998;7.794;2022-07-29T10:27:53;98820.88;;;24.66;50.00
53908;BME280;40469;47.998;7.794;2022-07-29T10:30:21;98826.13;;;24.67;49.53
53908;BME280;40469;47.998;7.794;2022-07-29T10:36:07;98829.91;;;24.50;49.30
53908;BME280;40469;47.998;7.794;2022-07-29T10:38:55;98829.59;;;24.42;50.22
53908;BME280;40469;47.998;7.794;2022-07-29T10:41:37;98834.84;;;24.56;49.58
53908;BME280;40469;47.998;7.794;2022-07-29T10:44:16;98835.25;;;24.76;48.33
53908;BME280;40469;47.998;7.794;2022-07-29T10:46:42;98846.59;;;24.67;47.60
53908;BME280;40469;47.998;7.794;2022-07-29T10:49:16;98844.34;;;24.86;48.39
53908;BME280;40469;47.998;7.794;2022-07-29T10:54:42;98840.06;;;24.96;47.73
53908;BME280;40469;47.998;7.794;2022-07-29T10:59:40;98844.75;;;25.06;49.08
53908;BME280;40469;47.998;7.794;2022-07-29T11:05:00;98843.31;;;25.39;46.46
53908;BME280;40469;47.998;7.794;2022-07-29T11:07:26;98838.75;;;25.28;46.49
53908;BME280;40469;47.998;7.794;2022-07-29T11:15:01;98832.03;;;24.96;46.85
53908;BME280;40469;47.998;7.794;2022-07-29T11:17:28;98840.91;;;25.10;46.23
53908;BME280;40469;47.998;7.794;2022-07-29T11:22:57;98844.13;;;24.89;46.75
53908;BME280;40469;47.998;7.794;2022-07-29T11:25:23;98851.09;;;24.92;46.34
53908;BME280;40469;47.998;7.794;2022-07-29T11:27:49;98847.88;;;24.87;47.13
53908;BME280;40469;47.998;7.794;2022-07-29T11:30:16;98846.47;;;25.07;47.20
53908;BME280;40469;47.998;7.794;2022-07-29T11:32:43;98850.09;;;25.06;47.93
53908;BME280;40469;47.998;7.794;2022-07-29T11:35:23;98839.03;;;25.23;47.04
53908;BME280;40469;47.998;7.794;2022-07-29T11:41:21;98845.16;;;25.12;47.37
53908;BME280;40469;47.998;7.794;2022-07-29T11:43:58;98838.88;;;25.13;47.63
53908;BME280;40469;47.998;7.794;2022-07-29T11:49:08;98839.47;;;24.67;47.31
53908;BME280;40469;47.998;7.794;2022-07-29T11:51:35;98843.38;;;24.87;47.67
53908;BME280;40469;47.998;7.794;2022-07-29T11:54:02;98836.34;;;24.99;47.76
53908;BME280;40469;47.998;7.794;2022-07-29T11:56:31;98847.09;;;25.10;48.10
53908;BME280;40469;47.998;7.794;2022-07-29T11:59:06;98845.50;;;24.95;48.03
53908;BME280;40469;47.998;7.794;2022-07-29T12:01:34;98848.59;;;25.02;48.08
53908;BME280;40469;47.998;7.794;2022-07-29T12:04:06;98849.03;;;25.08;47.61
53908;BME280;40469;47.998;7.794;2022-07-29T12:06:35;98856.63;;;24.89;47.63
53908;BME280;40469;47.998;7.794;2022-07-29T12:09:00;98849.22;;;25.05;47.70
53908;BME280;40469;47.998;7.794;2022-07-29T12:11:31;98853.63;;;25.06;47.70
53908;BME280;40469;47.998;7.794;2022-07-29T12:13:56;98853.53;;;24.82;48.16
53908;BME280;40469;47.998;7.794;2022-07-29T12:16:22;98853.22;;;25.00;47.85
53908;BME280;40469;47.998;7.794;2022-07-29T12:18:57;98858.72;;;25.09;48.01
53908;BME280;40469;47.998;7.794;2022-07-29T12:21:22;98858.09;;;25.19;48.09
53908;BME280;40469;47.998;7.794;2022-07-29T12:23:54;98857.00;;;25.21;48.74
53908;BME280;40469;47.998;7.794;2022-07-29T12:26:20;98854.44;;;25.20;48.09
53908;BME280;40469;47.998;7.794;2022-07-29T12:28:45;98857.63;;;25.38;47.30
53908;BME280;40469;47.998;7.794;2022-07-29T12:31:15;98853.44;;;25.46;47.35
53908;BME280;40469;47.998;7.794;2022-07-29T12:33:41;98863.66;;;25.28;46.71
53908;BME280;40469;47.998;7.794;2022-07-29T12:36:08;98860.88;;;25.04;47.39
53908;BME280;40469;47.998;7.794;2022-07-29T12:38:40;98859.25;;;25.14;47.10
53908;BME280;40469;47.998;7.794;2022-07-29T12:41:05;98861.28;;;25.37;46.55
53908;BME280;40469;47.998;7.794;2022-07-29T12:43:31;98858.72;;;25.22;47.76
53908;BME280;40469;47.998;7.794;2022-07-29T12:45:57;98851.13;;;25.29;46.78
53908;BME280;40469;47.998;7.794;2022-07-29T12:48:36;98855.00;;;25.12;46.88
53908;BME280;40469;47.998;7.794;2022-07-29T12:51:04;98867.09;;;25.05;47.93
53908;BME280;40469;47.998;7.794;2022-07-29T12:53:31;98858.34;;;25.03;46.68
53908;BME280;40469;47.998;7.794;2022-07-29T12:55:57;98859.09;;;24.92;46.01
53908;BME280;40469;47.998;7.794;2022-07-29T12:58:40;98865.56;;;25.01;45.26
53908;BME280;40469;47.998;7.794;2022-07-29T13:03:44;98851.59;;;24.97;45.78
53908;BME280;40469;47.998;7.794;2022-07-29T13:06:36;98850.97;;;25.06;46.68
53908;BME280;40469;47.998;7.794;2022-07-29T13:09:12;98863.47;;;24.93;47.27
53908;BME280;40469;47.998;7.794;2022-07-29T13:11:43;98846.59;;;24.67;48.51
53908;BME280;40469;47.998;7.794;2022-07-29T13:14:11;98847.47;;;24.80;48.04
53908;BME280;40469;47.998;7.794;2022-07-29T13:17:04;98851.84;;;24.68;48.14
53908;BME280;40469;47.998;7.794;2022-07-29T13:19:50;98855.97;;;24.47;48.36
53908;BME280;40469;47.998;7.794;2022-07-29T13:22:21;98849.16;;;24.42;48.70
53908;BME280;40469;47.998;7.794;2022-07-29T13:24:57;98849.34;;;24.52;48.86
53908;BME280;40469;47.998;7.794;2022-07-29T13:27:27;98852.91;;;24.66;48.80
53908;BME280;40469;47.998;7.794;2022-07-29T13:29:55;98852.47;;;24.72;47.40
53908;BME280;40469;47.998;7.794;2022-07-29T13:32:25;98853.22;;;24.61;46.36
53908;BME280;40469;47.998;7.794;2022-07-29T13:34:52;98851.94;;;24.54;46.58
53908;BME280;40469;47.998;7.794;2022-07-29T13:37:18;98855.75;;;24.50;47.18
53908;BME280;40469;47.998;7.794;2022-07-29T13:39:43;98854.06;;;24.62;47.16
53908;BME280;40469;47.998;7.794;2022-07-29T13:42:09;98853.19;;;24.48;47.01
53908;BME280;40469;47.998;7.794;2022-07-29T13:44:35;98851.94;;;24.54;47.71
53908;BME280;40469;47.998;7.794;2022-07-29T13:47:01;98851.84;;;24.55;48.29
53908;BME280;40469;47.998;7.794;2022-07-29T13:49:27;98853.31;;;24.47;48.31
53908;BME280;40469;47.998;7.794;2022-07-29T13:51:53;98854.25;;;24.46;48.77
53908;BME280;40469;47.998;7.794;2022-07-29T13:54:19;98856.91;;;24.33;49.39
53908;BME280;40469;47.998;7.794;2022-07-29T13:56:44;98848.91;;;24.20;50.35